createdAt,value
2022-09-28T00:02:24.486Z,7.80
2022-09-28T00:04:51.357Z,7.80
2022-09-28T00:07:17.987Z,7.80
2022-09-28T00:09:44.835Z,7.70
2022-09-28T00:12:11.831Z,7.90
2022-09-28T00:14:40.543Z,7.70
2022-09-28T00:17:08.240Z,7.90
2022-09-28T00:19:35.005Z,7.90
2022-09-28T00:24:28.818Z,8.00
2022-09-28T00:26:56.642Z,8.00
2022-09-28T00:29:26.943Z,8.00
2022-09-28T00:32:09.977Z,8.10
2022-09-28T00:34:38.372Z,8.10
2022-09-28T00:37:05.627Z,8.10
2022-09-28T00:39:32.299Z,8.10
2022-09-28T00:41:58.999Z,8.20
2022-09-28T00:44:25.678Z,8.10
2022-09-28T00:47:15.853Z,8.30
2022-09-28T00:49:56.677Z,8.40
2022-09-28T00:52:59.173Z,8.40
2022-09-28T00:55:31.189Z,8.50
2022-09-28T00:57:58.389Z,9.00
2022-09-28T01:00:25.232Z,8.60
2022-09-28T01:02:51.840Z,8.50
2022-09-28T01:05:18.519Z,8.50
2022-09-28T01:07:45.237Z,8.60
2022-09-28T01:10:11.875Z,8.60
2022-09-28T01:12:38.538Z,8.60
2022-09-28T01:15:05.578Z,8.60
2022-09-28T01:18:11.688Z,8.60
2022-09-28T01:21:09.003Z,8.60
2022-09-28T01:23:47.758Z,8.80
2022-09-28T01:27:08.504Z,8.70
2022-09-28T01:29:47.250Z,8.50
2022-09-28T01:32:22.829Z,8.70
2022-09-28T01:35:01.476Z,8.60
2022-09-28T01:37:36.375Z,8.60
2022-09-28T01:40:03.972Z,8.60
2022-09-28T01:42:31.527Z,8.60
2022-09-28T01:45:02.631Z,8.60
2022-09-28T01:47:29.395Z,8.60
2022-09-28T01:50:00.410Z,8.70
2022-09-28T01:52:33.974Z,8.60
2022-09-28T01:55:03.724Z,8.70
2022-09-28T01:57:34.622Z,8.70
2022-09-28T02:00:07.114Z,7.30
2022-09-28T02:02:37.621Z,8.70
2022-09-28T02:05:31.304Z,8.60
2022-09-28T02:08:26.854Z,8.60
2022-09-28T02:10:59.872Z,8.60
2022-09-28T02:13:49.212Z,8.50
2022-09-28T02:16:41.206Z,8.50
2022-09-28T02:19:12.759Z,8.50
2022-09-28T02:22:02.269Z,8.40
2022-09-28T02:24:39.380Z,8.50
2022-09-28T02:27:14.711Z,8.40
2022-09-28T02:29:41.500Z,8.50
2022-09-28T02:32:08.233Z,8.30
2022-09-28T02:34:35.453Z,8.30
2022-09-28T02:37:02.482Z,8.00
2022-09-28T02:39:29.140Z,8.30
2022-09-28T02:42:01.349Z,8.30
2022-09-28T02:44:45.364Z,8.20
2022-09-28T02:47:14.819Z,8.10
2022-09-28T02:49:52.606Z,8.20
2022-09-28T02:52:39.082Z,8.00
2022-09-28T02:55:20.505Z,8.20
2022-09-28T02:58:05.064Z,8.20
2022-09-28T03:00:32.584Z,8.30
2022-09-28T03:03:20.433Z,8.20
2022-09-28T03:06:00.465Z,8.30
2022-09-28T03:08:42.167Z,8.40
2022-09-28T03:11:18.114Z,8.40
2022-09-28T03:13:44.915Z,8.40
2022-09-28T03:16:13.515Z,8.80
2022-09-28T03:18:40.436Z,8.70
2022-09-28T03:21:07.435Z,8.90
2022-09-28T03:23:34.241Z,8.90
2022-09-28T03:28:28.192Z,9.10
2022-09-28T03:30:55.160Z,9.10
2022-09-28T03:33:22.560Z,9.10
2022-09-28T03:35:50.440Z,9.00
2022-09-28T03:38:18.662Z,9.20
2022-09-28T03:40:58.280Z,8.90
2022-09-28T03:43:25.493Z,8.90
2022-09-28T03:45:59.597Z,8.90
2022-09-28T03:48:32.150Z,8.90
2022-09-28T03:51:00.920Z,9.00
2022-09-28T03:53:29.640Z,9.00
2022-09-28T03:58:23.527Z,9.00
2022-09-28T04:00:50.385Z,8.90
2022-09-28T04:03:17.197Z,9.00
2022-09-28T04:05:50.798Z,8.90
2022-09-28T04:08:17.702Z,8.90
2022-09-28T04:10:44.562Z,8.80
2022-09-28T04:13:11.235Z,8.70
2022-09-28T04:15:38.698Z,8.60
2022-09-28T04:18:09.421Z,8.80
2022-09-28T04:20:36.083Z,8.80
2022-09-28T04:23:02.931Z,8.80
2022-09-28T04:25:29.745Z,8.80
2022-09-28T04:28:14.960Z,8.90
2022-09-28T04:30:41.764Z,8.90
2022-09-28T04:33:08.421Z,8.70
2022-09-28T04:40:29.678Z,8.60
2022-09-28T04:42:56.796Z,8.50
2022-09-28T04:45:26.125Z,8.60
2022-09-28T04:47:53.102Z,8.50
2022-09-28T04:50:19.800Z,10.20
2022-09-28T04:52:46.518Z,8.50
2022-09-28T04:55:13.749Z,8.50
2022-09-28T04:57:40.731Z,8.50
2022-09-28T05:00:08.932Z,8.60
2022-09-28T05:02:35.811Z,8.60
2022-09-28T05:05:02.594Z,8.70
2022-09-28T05:07:29.281Z,9.80
2022-09-28T05:09:56.060Z,8.60
2022-09-28T05:12:22.816Z,9.30
2022-09-28T05:14:49.476Z,8.80
2022-09-28T05:17:16.175Z,8.80
2022-09-28T05:19:43.109Z,8.90
2022-09-28T05:22:14.783Z,8.90
2022-09-28T05:24:41.613Z,8.80
2022-09-28T05:27:08.761Z,8.80
2022-09-28T05:29:35.463Z,8.80
2022-09-28T05:32:02.303Z,8.90
2022-09-28T05:34:29.410Z,8.90
2022-09-28T05:36:56.278Z,8.90
2022-09-28T05:39:23.154Z,10.50
2022-09-28T05:41:49.943Z,9.00
2022-09-28T05:44:16.686Z,9.00
2022-09-28T05:46:43.511Z,9.10
2022-09-28T05:49:10.229Z,9.10
2022-09-28T05:51:37.176Z,9.10
2022-09-28T05:54:14.860Z,9.10
2022-09-28T05:56:41.808Z,9.00
2022-09-28T05:59:09.365Z,8.20
2022-09-28T06:01:36.130Z,8.90
2022-09-28T06:04:02.893Z,8.80
2022-09-28T06:06:29.608Z,8.90
2022-09-28T06:08:56.422Z,8.80
2022-09-28T06:11:26.963Z,8.80
2022-09-28T06:13:55.545Z,8.60
2022-09-28T06:16:22.357Z,8.90
2022-09-28T06:18:49.087Z,9.00
2022-09-28T06:21:15.960Z,9.00
2022-09-28T06:23:46.879Z,9.00
2022-09-28T06:26:16.414Z,9.00
2022-09-28T06:28:43.149Z,9.00
2022-09-28T06:31:10.107Z,9.10
2022-09-28T06:36:05.479Z,9.10
2022-09-28T06:38:32.143Z,9.10
2022-09-28T06:40:59.089Z,9.20
2022-09-28T06:43:25.994Z,9.20
2022-09-28T06:45:53.246Z,9.20
2022-09-28T06:48:20.083Z,9.30
2022-09-28T06:50:47.525Z,9.20
2022-09-28T06:53:14.981Z,9.20
2022-09-28T06:55:42.692Z,9.20
2022-09-28T06:58:14.429Z,9.20
2022-09-28T07:00:41.502Z,9.30
2022-09-28T07:03:13.267Z,8.90
2022-09-28T07:05:50.377Z,9.20
2022-09-28T07:10:49.342Z,9.30
2022-09-28T07:13:38.073Z,12.10
2022-09-28T07:16:03.510Z,9.00
2022-09-28T07:18:30.492Z,9.30
2022-09-28T07:20:57.472Z,9.40
2022-09-28T07:25:53.593Z,9.30
2022-09-28T07:28:21.234Z,9.30
2022-09-28T07:30:48.297Z,9.20
2022-09-28T07:33:17.198Z,9.10
2022-09-28T07:35:53.055Z,8.80
2022-09-28T07:38:20.255Z,8.60
2022-09-28T07:41:05.553Z,8.50
2022-09-28T07:43:32.682Z,8.50
2022-09-28T07:45:59.472Z,8.20
2022-09-28T07:50:55.078Z,8.50
2022-09-28T07:53:22.940Z,8.00
2022-09-28T07:55:57.426Z,8.60
2022-09-28T07:58:24.159Z,8.40
2022-09-28T08:00:51.025Z,8.60
2022-09-28T08:03:18.449Z,8.50
2022-09-28T08:08:12.576Z,8.60
2022-09-28T08:10:41.582Z,8.50
2022-09-28T08:15:38.303Z,8.60
2022-09-28T08:18:05.053Z,8.60
2022-09-28T08:20:51.831Z,11.00
2022-09-28T08:23:18.704Z,8.40
2022-09-28T08:25:49.575Z,8.40
2022-09-28T08:28:19.432Z,8.50
2022-09-28T08:33:14.380Z,8.50
2022-09-28T08:35:41.872Z,7.70
2022-09-28T08:38:09.673Z,9.00
2022-09-28T08:41:17.921Z,8.50
2022-09-28T08:43:56.852Z,8.70
2022-09-28T08:46:27.066Z,12.60
2022-09-28T08:49:26.301Z,9.10
2022-09-28T08:51:55.417Z,9.20
2022-09-28T08:55:06.712Z,9.30
2022-09-28T08:57:36.209Z,9.10
2022-09-28T09:02:34.755Z,9.50
2022-09-28T09:05:03.733Z,9.40
2022-09-28T09:07:39.969Z,9.30
2022-09-28T09:10:35.349Z,9.50
2022-09-28T09:13:32.051Z,9.60
2022-09-28T09:16:15.239Z,9.60
2022-09-28T09:18:53.192Z,9.60
2022-09-28T09:21:20.155Z,9.70
2022-09-28T09:23:55.354Z,9.90
2022-09-28T09:26:41.009Z,10.40
2022-09-28T09:29:33.677Z,11.00
2022-09-28T09:32:12.640Z,10.40
2022-09-28T09:35:12.608Z,10.30
2022-09-28T09:38:00.973Z,10.70
2022-09-28T09:40:34.068Z,10.30
2022-09-28T09:43:19.659Z,10.40
2022-09-28T09:46:10.868Z,10.70
2022-09-28T09:48:47.379Z,10.60
2022-09-28T09:51:23.180Z,10.60
2022-09-28T09:54:00.009Z,10.90
2022-09-28T09:56:34.984Z,10.60
2022-09-28T09:59:06.814Z,10.60
2022-09-28T10:01:36.130Z,10.40
2022-09-28T10:04:02.912Z,10.50
2022-09-28T10:06:36.418Z,10.40
2022-09-28T10:09:39.615Z,10.30
2022-09-28T10:12:10.022Z,10.30
2022-09-28T10:14:36.704Z,10.10
2022-09-28T10:17:03.929Z,10.60
2022-09-28T10:19:34.119Z,10.20
2022-09-28T10:22:03.312Z,10.10
2022-09-28T10:24:41.362Z,12.70
2022-09-28T10:27:12.103Z,10.30
2022-09-28T10:29:54.554Z,10.30
2022-09-28T10:32:37.015Z,10.20
2022-09-28T10:35:18.867Z,10.10
2022-09-28T10:37:54.230Z,10.10
2022-09-28T10:40:30.807Z,10.30
2022-09-28T10:43:02.521Z,10.30
2022-09-28T10:45:31.583Z,10.20
2022-09-28T10:48:00.809Z,10.20
2022-09-28T10:50:27.967Z,10.20
2022-09-28T10:52:54.688Z,10.10
2022-09-28T10:55:21.373Z,10.10
2022-09-28T10:57:48.224Z,10.20
2022-09-28T11:00:33.808Z,10.10
2022-09-28T11:03:01.813Z,10.10
2022-09-28T11:05:28.564Z,10.10
2022-09-28T11:07:55.875Z,10.30
2022-09-28T11:10:26.327Z,12.80
2022-09-28T11:12:53.160Z,10.40
2022-09-28T11:15:21.357Z,10.40
2022-09-28T11:17:48.312Z,10.40
2022-09-28T11:20:27.363Z,10.30
2022-09-28T11:23:14.802Z,10.20
2022-09-28T11:28:18.989Z,10.30
2022-09-28T11:30:48.703Z,10.10
2022-09-28T11:33:20.574Z,10.30
2022-09-28T11:35:50.723Z,10.20
2022-09-28T11:38:38.991Z,10.30
2022-09-28T11:41:33.392Z,10.40
2022-09-28T11:44:10.381Z,10.50
2022-09-28T11:46:43.023Z,10.40
2022-09-28T11:49:45.664Z,10.30
2022-09-28T11:52:55.392Z,10.30
2022-09-28T11:55:22.131Z,10.30
2022-09-28T11:58:21.435Z,10.20
2022-09-28T12:00:51.546Z,10.10
2022-09-28T12:03:36.120Z,10.00
2022-09-28T12:06:05.385Z,10.00
2022-09-28T12:08:37.317Z,10.40
2022-09-28T12:11:09.829Z,10.30
2022-09-28T12:13:42.196Z,10.30
2022-09-28T12:19:13.595Z,10.40
2022-09-28T12:21:52.948Z,10.30
2022-09-28T12:24:35.899Z,10.30
2022-09-28T12:27:23.216Z,10.20
2022-09-28T12:30:12.803Z,10.30
2022-09-28T12:32:50.186Z,10.30
2022-09-28T12:35:43.981Z,10.30
2022-09-28T12:38:24.551Z,10.40
2022-09-28T12:41:31.681Z,10.30
2022-09-28T12:44:07.380Z,10.30
2022-09-28T12:46:40.378Z,11.30
2022-09-28T12:50:13.880Z,10.30
2022-09-28T12:52:42.422Z,11.20
2022-09-28T12:55:25.781Z,10.10
2022-09-28T12:58:27.645Z,10.20
2022-09-28T13:01:08.464Z,10.20
2022-09-28T13:03:38.414Z,10.20
2022-09-28T13:06:34.685Z,10.20
2022-09-28T13:09:20.566Z,10.00
2022-09-28T13:12:13.097Z,10.60
2022-09-28T13:15:01.519Z,10.10
2022-09-28T13:17:46.027Z,10.00
2022-09-28T13:20:32.808Z,9.90
2022-09-28T13:23:11.480Z,9.90
2022-09-28T13:25:40.970Z,10.00
2022-09-28T13:28:08.100Z,10.00
2022-09-28T13:30:36.263Z,10.00
2022-09-28T13:33:03.988Z,10.00
2022-09-28T13:35:30.721Z,9.90
2022-09-28T13:38:18.711Z,9.90
2022-09-28T13:41:03.781Z,9.80
2022-09-28T13:44:10.074Z,10.20
2022-09-28T13:47:28.242Z,10.20
2022-09-28T13:50:13.989Z,10.20
2022-09-28T13:53:19.699Z,9.60
2022-09-28T13:56:31.754Z,13.60
2022-09-28T13:59:22.367Z,10.10
2022-09-28T14:02:07.199Z,10.10
2022-09-28T14:04:54.193Z,10.10
2022-09-28T14:07:25.610Z,10.00
2022-09-28T14:10:16.981Z,9.90
2022-09-28T14:12:53.255Z,10.00
2022-09-28T14:15:29.051Z,9.90
2022-09-28T14:18:19.156Z,10.10
2022-09-28T14:21:27.423Z,10.00
2022-09-28T14:24:00.216Z,10.10
2022-09-28T14:27:04.560Z,9.70
2022-09-28T14:29:33.436Z,9.90
2022-09-28T14:32:23.767Z,9.90
2022-09-28T14:35:00.992Z,9.70
2022-09-28T14:37:54.487Z,9.90
2022-09-28T14:40:49.391Z,9.90
2022-09-28T14:43:36.526Z,9.80
2022-09-28T14:46:27.860Z,9.90
2022-09-28T14:48:55.264Z,9.80
2022-09-28T14:51:26.184Z,10.70
2022-09-28T14:54:01.293Z,9.70
2022-09-28T14:56:33.639Z,9.60
2022-09-28T14:59:00.368Z,13.40
2022-09-28T15:01:27.078Z,9.50
2022-09-28T15:03:55.456Z,9.50
2022-09-28T15:06:25.482Z,9.60
2022-09-28T15:08:52.887Z,9.40
2022-09-28T15:11:24.358Z,9.40
2022-09-28T15:13:53.995Z,9.30
2022-09-28T15:16:23.556Z,9.40
2022-09-28T15:19:19.432Z,9.20
2022-09-28T15:21:47.774Z,9.10
2022-09-28T15:24:27.898Z,9.30
2022-09-28T15:26:54.589Z,9.20
2022-09-28T15:29:22.811Z,9.10
2022-09-28T15:31:54.130Z,9.10
2022-09-28T15:34:46.964Z,9.10
2022-09-28T15:39:42.396Z,9.10
2022-09-28T15:42:09.099Z,9.00
2022-09-28T15:44:37.165Z,9.00
2022-09-28T15:47:19.207Z,9.00
2022-09-28T15:50:01.064Z,8.80
2022-09-28T15:52:36.694Z,8.80
2022-09-28T15:55:06.227Z,6.80
2022-09-28T15:57:36.849Z,8.80
2022-09-28T16:00:25.533Z,8.70
2022-09-28T16:03:19.675Z,8.80
2022-09-28T16:06:08.170Z,8.70
2022-09-28T16:08:40.466Z,8.70
2022-09-28T16:11:20.381Z,8.60
2022-09-28T16:14:16.191Z,8.40
2022-09-28T16:16:46.347Z,8.90
2022-09-28T16:19:23.440Z,8.60
2022-09-28T16:21:52.079Z,8.60
2022-09-28T16:24:23.735Z,8.50
2022-09-28T16:27:02.922Z,8.50
2022-09-28T16:29:39.646Z,8.50
2022-09-28T16:32:25.223Z,8.50
2022-09-28T16:35:16.262Z,8.70
2022-09-28T16:37:43.025Z,8.20
2022-09-28T16:40:10.411Z,8.30
2022-09-28T16:42:37.349Z,8.40
2022-09-28T16:45:05.312Z,11.00
2022-09-28T16:47:36.027Z,8.30
2022-09-28T16:50:06.517Z,8.30
2022-09-28T16:52:52.777Z,8.30
2022-09-28T16:55:39.456Z,8.20
2022-09-28T16:58:07.037Z,8.20
2022-09-28T17:00:33.811Z,8.20
2022-09-28T17:03:00.532Z,9.00
2022-09-28T17:05:27.234Z,8.20
2022-09-28T17:08:01.729Z,8.10
2022-09-28T17:11:02.427Z,8.10
2022-09-28T17:13:33.716Z,8.10
2022-09-28T17:16:01.688Z,8.10
2022-09-28T17:18:31.917Z,8.00
2022-09-28T17:21:03.307Z,8.00
2022-09-28T17:23:30.282Z,8.70
2022-09-28T17:25:57.147Z,7.90
2022-09-28T17:28:43.063Z,8.00
2022-09-28T17:31:15.556Z,8.00
2022-09-28T17:33:42.566Z,8.00
2022-09-28T17:36:16.464Z,8.00
2022-09-28T17:38:43.364Z,7.80
2022-09-28T17:41:19.416Z,7.90
2022-09-28T17:43:47.113Z,7.90
2022-09-28T17:46:34.923Z,7.90
2022-09-28T17:49:03.071Z,7.90
2022-09-28T17:51:31.019Z,10.40
2022-09-28T17:53:58.523Z,7.80
2022-09-28T17:59:03.722Z,7.90
2022-09-28T18:01:34.349Z,7.90
2022-09-28T18:04:02.084Z,7.80
2022-09-28T18:06:29.029Z,7.90
2022-09-28T18:08:55.731Z,7.90
2022-09-28T18:11:22.676Z,7.80
2022-09-28T18:13:49.393Z,7.90
2022-09-28T18:16:16.184Z,7.80
2022-09-28T18:18:43.017Z,7.70
2022-09-28T18:21:10.367Z,7.80
2022-09-28T18:23:37.873Z,7.80
2022-09-28T18:26:11.317Z,7.60
2022-09-28T18:28:37.986Z,7.80
2022-09-28T18:31:08.748Z,7.80
2022-09-28T18:33:35.599Z,7.80
2022-09-28T18:36:02.544Z,7.90
2022-09-28T18:38:29.226Z,7.90
2022-09-28T18:43:23.429Z,7.80
2022-09-28T18:45:50.186Z,7.80
2022-09-28T18:48:16.878Z,7.80
2022-09-28T18:50:43.574Z,7.80
2022-09-28T18:53:13.037Z,7.80
2022-09-28T18:55:44.418Z,7.80
2022-09-28T18:58:11.501Z,7.80
2022-09-28T19:00:39.340Z,7.80
2022-09-28T19:03:06.509Z,7.80
2022-09-28T19:05:33.792Z,7.70
2022-09-28T19:08:00.749Z,7.80
2022-09-28T19:10:28.752Z,7.80
2022-09-28T19:12:55.671Z,7.70
2022-09-28T19:15:22.891Z,7.80
2022-09-28T19:17:50.221Z,7.80
2022-09-28T19:20:17.040Z,7.70
2022-09-28T19:22:44.228Z,7.60
2022-09-28T19:25:11.139Z,7.70
2022-09-28T19:27:37.866Z,7.70
2022-09-28T19:30:05.090Z,7.70
2022-09-28T19:32:31.799Z,7.50
2022-09-28T19:34:59.338Z,7.50
2022-09-28T19:37:26.249Z,7.70
2022-09-28T19:39:53.018Z,7.70
2022-09-28T19:42:19.726Z,8.10
2022-09-28T19:44:46.442Z,7.80
2022-09-28T19:47:13.200Z,7.80
2022-09-28T19:49:40.151Z,7.80
2022-09-28T19:52:15.899Z,7.70
2022-09-28T19:54:56.388Z,7.80
2022-09-28T19:57:28.026Z,7.80
2022-09-28T19:59:59.239Z,7.80
2022-09-28T20:02:27.897Z,7.70
2022-09-28T20:07:21.783Z,7.80
2022-09-28T20:09:48.459Z,7.80
2022-09-28T20:12:15.276Z,8.20
2022-09-28T20:14:41.997Z,7.80
2022-09-28T20:17:09.185Z,8.70
2022-09-28T20:19:36.072Z,7.50
2022-09-28T20:22:03.112Z,7.80
2022-09-28T20:24:31.455Z,7.70
2022-09-28T20:26:58.306Z,7.70
2022-09-28T20:29:25.239Z,8.40
2022-09-28T20:31:52.085Z,7.70
2022-09-28T20:34:18.876Z,7.70
2022-09-28T20:36:45.521Z,10.10
2022-09-28T20:39:12.572Z,7.60
2022-09-28T20:41:39.701Z,7.50
2022-09-28T20:44:07.794Z,7.60
2022-09-28T20:46:35.487Z,7.70
2022-09-28T20:49:02.635Z,7.60
2022-09-28T20:51:29.322Z,7.60
2022-09-28T20:53:57.115Z,7.60
2022-09-28T20:56:27.791Z,7.60
2022-09-28T20:58:54.711Z,7.60
2022-09-28T21:01:22.506Z,7.60
2022-09-28T21:03:56.707Z,7.50
2022-09-28T21:06:25.601Z,7.50
2022-09-28T21:08:52.453Z,7.40
2022-09-28T21:11:22.388Z,7.40
2022-09-28T21:13:52.550Z,7.40
2022-09-28T21:16:19.373Z,7.30
2022-09-28T21:21:14.808Z,7.50
2022-09-28T21:23:44.787Z,7.50
2022-09-28T21:26:24.741Z,7.40
2022-09-28T21:28:57.962Z,7.40
2022-09-28T21:31:28.902Z,7.50
2022-09-28T21:33:56.879Z,7.40
2022-09-28T21:36:23.685Z,7.40
2022-09-28T21:38:50.519Z,7.50
2022-09-28T21:41:17.480Z,7.40
2022-09-28T21:43:44.203Z,7.40
2022-09-28T21:51:07.099Z,7.40
2022-09-28T21:53:35.513Z,7.30
2022-09-28T21:56:02.651Z,7.20
2022-09-28T21:58:30.731Z,7.40
2022-09-28T22:01:02.978Z,7.40
2022-09-28T22:03:30.239Z,7.40
2022-09-28T22:05:57.291Z,7.40
2022-09-28T22:08:24.359Z,7.40
2022-09-28T22:11:01.070Z,7.40
2022-09-28T22:13:31.921Z,7.40
2022-09-28T22:15:58.849Z,7.40
2022-09-28T22:18:26.519Z,7.40
2022-09-28T22:21:00.465Z,7.30
2022-09-28T22:23:27.945Z,7.40
2022-09-28T22:26:19.465Z,7.10
2022-09-28T22:28:50.547Z,8.00
2022-09-28T22:31:18.130Z,7.20
2022-09-28T22:33:44.932Z,7.40
2022-09-28T22:36:11.794Z,7.40
2022-09-28T22:38:38.461Z,7.40
2022-09-28T22:41:05.257Z,7.50
2022-09-28T22:43:31.992Z,7.90
2022-09-28T22:46:17.363Z,7.40
2022-09-28T22:48:48.219Z,7.40
2022-09-28T22:51:15.672Z,7.30
2022-09-28T22:53:42.426Z,7.30
2022-09-28T22:56:09.544Z,7.20
2022-09-28T22:58:36.728Z,7.30
2022-09-28T23:01:10.093Z,7.10
2022-09-28T23:03:37.214Z,7.10
2022-09-28T23:06:04.062Z,7.10
2022-09-28T23:08:32.058Z,7.00
2022-09-28T23:10:59.099Z,6.90
2022-09-28T23:13:25.844Z,6.80
2022-09-28T23:15:59.790Z,6.80
2022-09-28T23:18:28.388Z,6.60
2022-09-28T23:20:59.811Z,7.00
2022-09-28T23:23:26.618Z,6.50
2022-09-28T23:25:53.876Z,6.50
2022-09-28T23:28:21.350Z,6.40
2022-09-28T23:30:48.556Z,6.40
2022-09-28T23:33:16.065Z,6.30
2022-09-28T23:35:43.004Z,6.30
2022-09-28T23:38:18.107Z,6.10
2022-09-28T23:43:15.332Z,6.10
2022-09-28T23:45:45.542Z,6.00
2022-09-28T23:48:14.995Z,6.00
2022-09-28T23:50:44.621Z,6.00
2022-09-28T23:53:12.243Z,5.90
2022-09-28T23:55:38.913Z,5.90
2022-09-28T23:58:05.573Z,5.80
